Terminal Aerodrome Forecast
Issued by NWS

Home | Current Version | Previous Version | Text Only | Print | Product List | Glossary On
Versions: 1 2 3 4 5 6 7 8 9 10 11 12 13 14 15 16 17
197
FTUS41 KPBZ 282320
TAFFKL
TAF
KFKL 282320Z 2900/2924 19004KT P6SM BKN250
     FM291500 23014G23KT P6SM BKN090
     FM292100 22015G25KT P6SM VCTS BKN070CB
      AMD LTD TO CLD VIS AND WIND=

USA.gov is the U.S. government's official web portal to all federal, state and local government web resources and services.